Time;durP1;ratioP1;P1;durP2;ratioP2;P2;SDS_P1;SDS_P2;PMS_P1;PMS_P2;Temp;Humidity;BMP_temperature;BMP_pressure;BME280_temperature;BME280_humidity;BME280_pressure;Samples;Min_cycle;Max_cycle;Signal;HPM_P1;HPM_P2
2022/03/09 00:01:47;;;;;;;6.60;2.70;;;8.00;74.60;;;;;;4942345;28;20046;-72
2022/03/09 00:04:13;;;;;;;3.60;2.35;;;8.00;74.50;;;;;;4936886;29;20031;-72
2022/03/09 00:06:39;;;;;;;7.35;2.65;;;8.00;74.60;;;;;;4950718;28;20130;-72
2022/03/09 00:09:05;;;;;;;4.03;2.63;;;7.90;74.40;;;;;;4946176;28;20082;-72
2022/03/09 00:11:30;;;;;;;4.43;2.60;;;8.00;74.30;;;;;;4942459;28;20122;-73
2022/03/09 00:13:56;;;;;;;3.53;2.10;;;8.00;74.20;;;;;;4937947;28;20537;-73
2022/03/09 00:16:22;;;;;;;4.80;2.75;;;8.00;74.10;;;;;;4950671;28;20053;-73
2022/03/09 00:18:49;;;;;;;5.88;2.40;;;7.90;73.90;;;;;;4949540;28;20043;-73
2022/03/09 00:21:14;;;;;;;6.45;2.65;;;7.90;73.90;;;;;;4938277;28;20086;-74
2022/03/09 00:23:41;;;;;;;4.28;2.50;;;7.90;73.80;;;;;;4950267;28;20042;-74
2022/03/09 00:26:08;;;;;;;5.65;2.80;;;7.90;73.80;;;;;;4936767;28;20070;-71
2022/03/09 00:28:34;;;;;;;7.78;3.40;;;7.90;73.80;;;;;;4950348;28;20039;-71
2022/03/09 00:31:00;;;;;;;7.60;2.58;;;7.80;73.70;;;;;;4950118;28;20173;-71
2022/03/09 00:33:25;;;;;;;5.97;2.90;;;7.80;73.60;;;;;;4942899;28;20038;-71
2022/03/09 00:35:51;;;;;;;3.45;2.40;;;7.80;73.70;;;;;;4944541;29;20421;-71
2022/03/09 00:38:16;;;;;;;4.53;2.83;;;7.80;73.60;;;;;;4938908;29;20023;-71
2022/03/09 00:40:44;;;;;;;4.55;2.80;;;7.80;73.80;;;;;;4936145;29;20032;-72
2022/03/09 00:43:09;;;;;;;5.00;2.35;;;7.70;73.90;;;;;;4949684;28;20027;-71
2022/03/09 00:45:35;;;;;;;5.70;2.60;;;7.70;73.90;;;;;;4947704;28;20051;-72
2022/03/09 00:48:07;;;;;;;6.22;2.85;;;7.70;73.90;;;;;;5006119;28;20070;-71
2022/03/09 00:50:32;;;;;;;4.40;2.58;;;7.70;73.60;;;;;;4950182;29;20093;-71
2022/03/09 00:52:58;;;;;;;4.15;2.47;;;7.70;73.60;;;;;;4950049;28;20023;-71
2022/03/09 00:55:25;;;;;;;4.78;2.65;;;7.70;73.70;;;;;;4949191;28;20035;-71
2022/03/09 00:57:51;;;;;;;7.10;2.67;;;7.60;73.70;;;;;;4939171;28;20035;-71
2022/03/09 01:00:17;;;;;;;7.20;3.08;;;7.60;74.40;;;;;;4938247;28;20169;-72
2022/03/09 01:02:44;;;;;;;5.40;2.75;;;7.60;74.00;;;;;;4948444;29;20031;-71
2022/03/09 01:05:11;;;;;;;4.57;2.60;;;7.60;74.00;;;;;;4949797;28;20466;-71
2022/03/09 01:07:37;;;;;;;5.72;2.58;;;7.60;74.10;;;;;;4931057;28;20042;-71
2022/03/09 01:10:04;;;;;;;5.53;2.78;;;7.50;74.10;;;;;;4943440;28;20035;-71
2022/03/09 01:12:30;;;;;;;4.32;2.70;;;7.50;74.20;;;;;;4930604;28;20039;-72
2022/03/09 01:14:56;;;;;;;4.65;2.63;;;7.50;74.20;;;;;;4942978;29;20031;-71
2022/03/09 01:17:22;;;;;;;5.32;2.60;;;7.50;74.80;;;;;;4949707;29;20031;-71
2022/03/09 01:19:48;;;;;;;4.28;2.72;;;7.40;74.00;;;;;;4949577;28;20127;-71
2022/03/09 01:22:14;;;;;;;7.40;3.28;;;7.40;73.80;;;;;;4949228;28;20122;-71
2022/03/09 01:24:40;;;;;;;6.30;2.83;;;7.40;73.80;;;;;;4935281;28;20138;-71
2022/03/09 01:27:05;;;;;;;6.90;3.03;;;7.40;74.00;;;;;;4930633;28;20071;-71
2022/03/09 01:29:31;;;;;;;5.45;2.83;;;7.30;74.20;;;;;;4931394;28;20810;-71
2022/03/09 01:31:57;;;;;;;5.60;2.63;;;7.30;74.10;;;;;;4949401;28;20033;-71
2022/03/09 01:34:22;;;;;;;6.07;2.92;;;7.30;74.30;;;;;;4949076;29;20118;-71
2022/03/09 01:36:48;;;;;;;4.40;2.60;;;7.20;74.30;;;;;;4939888;28;20086;-71
2022/03/09 01:39:14;;;;;;;4.95;2.28;;;7.20;74.50;;;;;;4942840;28;20039;-71
2022/03/09 01:41:40;;;;;;;5.93;2.63;;;7.20;74.80;;;;;;4939756;29;20039;-71
2022/03/09 01:44:14;;;;;;;7.35;3.25;;;7.20;74.70;;;;;;4948463;28;20348;-71
2022/03/09 01:46:41;;;;;;;10.90;2.85;;;7.20;74.80;;;;;;4948124;28;20043;-72
2022/03/09 01:49:08;;;;;;;3.97;2.55;;;7.20;74.80;;;;;;5035146;28;20389;-72
2022/03/09 01:51:39;;;;;;;6.25;2.72;;;7.20;75.00;;;;;;5019879;28;20041;-71
2022/03/09 01:54:06;;;;;;;6.25;3.25;;;7.20;75.10;;;;;;4957402;28;20406;-71
2022/03/09 01:56:33;;;;;;;4.30;2.60;;;7.10;75.20;;;;;;4955377;28;20859;-72
2022/03/09 01:59:01;;;;;;;3.55;2.20;;;7.20;75.30;;;;;;4943818;28;20042;-71
2022/03/09 02:01:27;;;;;;;5.70;2.78;;;7.10;75.40;;;;;;4948452;28;20553;-71
2022/03/09 02:03:52;;;;;;;5.43;2.75;;;7.10;75.30;;;;;;4971736;28;20037;-71
2022/03/09 02:06:18;;;;;;;5.43;2.72;;;7.10;75.30;;;;;;4956114;28;20040;-71
2022/03/09 02:11:31;;;;;;;8.13;2.85;;;7.00;75.40;;;;;;4951847;28;20070;-71
2022/03/09 02:13:57;;;;;;;4.40;3.00;;;7.00;76.10;;;;;;4952833;28;20035;-71
2022/03/09 02:16:22;;;;;;;4.13;2.30;;;7.00;75.70;;;;;;4952453;28;20029;-72
2022/03/09 02:18:48;;;;;;;6.88;2.67;;;7.00;76.40;;;;;;4951597;28;20383;-71
2022/03/09 02:21:15;;;;;;;5.18;2.83;;;6.90;76.80;;;;;;4968047;28;20027;-71
2022/03/09 02:23:41;;;;;;;4.75;2.67;;;6.90;77.20;;;;;;4952161;28;20149;-71
2022/03/09 02:26:07;;;;;;;15.25;3.38;;;6.90;77.30;;;;;;4941786;28;20091;-71
2022/03/09 02:28:44;;;;;;;6.43;2.85;;;6.90;77.30;;;;;;4949145;28;20046;-71
2022/03/09 02:31:10;;;;;;;4.88;2.72;;;6.90;77.50;;;;;;4952251;28;20118;-71
2022/03/09 02:33:35;;;;;;;5.32;2.80;;;6.80;77.80;;;;;;4938584;29;20115;-71
2022/03/09 02:36:02;;;;;;;6.07;3.05;;;6.80;78.00;;;;;;4940104;28;20372;-71
2022/03/09 02:38:28;;;;;;;3.78;2.47;;;6.80;78.40;;;;;;4945275;28;20047;-71
2022/03/09 02:40:54;;;;;;;6.10;3.05;;;6.80;78.40;;;;;;4944954;29;20042;-71
2022/03/09 02:43:20;;;;;;;3.80;2.60;;;6.80;78.50;;;;;;4951914;28;20023;-71
2022/03/09 02:45:46;;;;;;;5.43;2.65;;;6.80;78.60;;;;;;4951673;28;20035;-71
2022/03/09 02:48:14;;;;;;;4.25;2.60;;;6.80;79.10;;;;;;4939638;28;20123;-71
2022/03/09 02:50:40;;;;;;;5.22;2.95;;;6.70;78.40;;;;;;4951733;28;20035;-71
2022/03/09 02:53:05;;;;;;;6.55;2.83;;;6.80;78.30;;;;;;4943479;28;20034;-71
2022/03/09 02:55:31;;;;;;;8.02;2.92;;;6.70;78.30;;;;;;4984658;28;20029;-70
2022/03/09 02:57:57;;;;;;;5.90;3.47;;;6.70;78.20;;;;;;4936062;28;20043;-71
2022/03/09 03:00:22;;;;;;;6.13;3.45;;;6.70;78.20;;;;;;4943095;28;20453;-71
2022/03/09 03:02:50;;;;;;;5.32;2.95;;;6.70;78.40;;;;;;4951423;28;20157;-71
2022/03/09 03:05:16;;;;;;;5.38;3.40;;;6.60;78.20;;;;;;4939828;28;20156;-71
2022/03/09 03:07:41;;;;;;;5.95;2.97;;;6.60;78.50;;;;;;4949517;29;20031;-71
2022/03/09 03:10:08;;;;;;;6.07;3.28;;;6.60;78.40;;;;;;4951758;28;20038;-71
2022/03/09 03:12:34;;;;;;;6.20;3.13;;;6.50;78.20;;;;;;4939305;28;20027;-71
2022/03/09 03:15:01;;;;;;;7.85;3.28;;;6.50;78.20;;;;;;4975180;28;20031;-71
2022/03/09 03:17:27;;;;;;;6.15;3.25;;;6.50;78.00;;;;;;4986552;28;20047;-71
2022/03/09 03:19:52;;;;;;;5.32;2.78;;;6.50;78.10;;;;;;4988648;28;20028;-71
2022/03/09 03:22:18;;;;;;;6.75;3.35;;;6.40;78.10;;;;;;5003125;28;20357;-71
2022/03/09 03:24:43;;;;;;;6.43;3.30;;;6.40;78.10;;;;;;4971803;28;20043;-72
2022/03/09 03:27:10;;;;;;;6.22;3.20;;;6.40;78.30;;;;;;4941218;28;20028;-71
2022/03/09 03:29:35;;;;;;;7.40;3.30;;;6.40;78.50;;;;;;4962969;28;20023;-72
2022/03/09 03:32:01;;;;;;;4.88;2.92;;;6.40;78.40;;;;;;4981347;28;20491;-72
2022/03/09 03:34:26;;;;;;;6.72;3.20;;;6.30;78.50;;;;;;4950905;28;20125;-72
2022/03/09 03:36:52;;;;;;;6.25;2.95;;;6.30;78.60;;;;;;4950383;28;20124;-71
2022/03/09 03:39:18;;;;;;;8.75;3.28;;;6.30;78.60;;;;;;4938222;28;20031;-72
2022/03/09 03:41:43;;;;;;;5.05;2.80;;;6.30;78.70;;;;;;4950076;28;20402;-72
2022/03/09 03:44:09;;;;;;;5.22;2.85;;;6.30;79.10;;;;;;4937492;28;20023;-72
2022/03/09 03:46:35;;;;;;;7.82;3.78;;;6.30;79.30;;;;;;4950887;28;20542;-72
2022/03/09 03:49:00;;;;;;;5.72;3.30;;;6.30;79.30;;;;;;4973552;28;20132;-72
2022/03/09 03:51:26;;;;;;;8.80;4.20;;;6.20;79.20;;;;;;4949815;28;20043;-72
2022/03/09 03:53:52;;;;;;;7.70;3.55;;;6.30;78.90;;;;;;4963661;28;20029;-72
2022/03/09 03:56:18;;;;;;;5.53;3.22;;;6.20;78.60;;;;;;4984156;28;20051;-72
2022/03/09 03:58:43;;;;;;;6.60;3.70;;;6.20;78.50;;;;;;4950886;29;20045;-73
2022/03/09 04:01:09;;;;;;;5.68;3.03;;;6.20;78.60;;;;;;4938748;28;20470;-72
2022/03/09 04:03:34;;;;;;;6.03;3.30;;;6.10;78.70;;;;;;4950169;28;20374;-72
2022/03/09 04:06:02;;;;;;;7.85;3.85;;;6.20;79.10;;;;;;4950439;28;20040;-72
2022/03/09 04:08:27;;;;;;;7.75;3.17;;;6.10;78.80;;;;;;4950908;28;20046;-72
2022/03/09 04:10:53;;;;;;;7.07;3.63;;;6.10;78.90;;;;;;4937349;28;20035;-72
2022/03/09 04:13:19;;;;;;;8.77;3.22;;;6.10;78.90;;;;;;4950934;29;20062;-72
2022/03/09 04:15:44;;;;;;;8.57;3.65;;;6.10;79.10;;;;;;4950045;28;20116;-72
2022/03/09 04:18:10;;;;;;;5.20;2.97;;;6.10;79.00;;;;;;4937835;29;20032;-72
2022/03/09 04:20:35;;;;;;;7.00;3.65;;;6.10;79.00;;;;;;4948204;28;20043;-72
2022/03/09 04:23:01;;;;;;;5.93;3.55;;;6.00;79.10;;;;;;5010177;28;20037;-72
2022/03/09 04:25:29;;;;;;;8.60;3.90;;;6.00;79.10;;;;;;4931587;28;20048;-72
2022/03/09 04:27:55;;;;;;;11.23;3.83;;;6.00;79.10;;;;;;4968658;28;20021;-72
2022/03/09 04:30:20;;;;;;;8.02;3.60;;;5.90;78.90;;;;;;4938487;28;20070;-72
2022/03/09 04:32:46;;;;;;;5.60;3.00;;;6.00;78.80;;;;;;4949564;28;20080;-72
2022/03/09 04:35:12;;;;;;;6.35;3.13;;;5.90;78.40;;;;;;4950576;28;20490;-72
2022/03/09 04:37:38;;;;;;;6.47;3.45;;;5.80;78.20;;;;;;4950339;28;20031;-72
2022/03/09 04:40:05;;;;;;;9.35;4.03;;;5.80;78.30;;;;;;4949847;28;20474;-72
2022/03/09 04:42:31;;;;;;;6.85;4.10;;;5.80;78.30;;;;;;4947496;28;20050;-72
2022/03/09 04:44:57;;;;;;;8.70;3.83;;;5.80;78.30;;;;;;4939762;29;20474;-72
2022/03/09 04:47:23;;;;;;;7.20;3.25;;;5.80;78.20;;;;;;4949612;28;20116;-72
2022/03/09 04:49:50;;;;;;;5.88;3.35;;;5.70;78.30;;;;;;4950241;29;20471;-72
2022/03/09 04:52:17;;;;;;;8.93;3.03;;;5.70;78.20;;;;;;4934402;28;20036;-72
2022/03/09 04:54:43;;;;;;;13.55;3.42;;;5.70;78.30;;;;;;4952658;28;20036;-72
2022/03/09 04:57:08;;;;;;;7.80;3.60;;;5.70;78.30;;;;;;4984198;28;20513;-72
2022/03/09 04:59:34;;;;;;;6.97;3.72;;;5.70;78.50;;;;;;4942771;29;20085;-72
2022/03/09 05:01:59;;;;;;;6.75;3.25;;;5.70;78.40;;;;;;4942097;28;20039;-72
2022/03/09 05:04:25;;;;;;;8.77;3.78;;;5.70;78.30;;;;;;4951759;28;20031;-72
2022/03/09 05:06:51;;;;;;;8.02;3.90;;;5.70;78.30;;;;;;4959938;28;20074;-73
2022/03/09 05:09:16;;;;;;;7.07;4.05;;;5.60;78.30;;;;;;4990623;28;20031;-72
2022/03/09 05:11:42;;;;;;;8.27;4.13;;;5.60;78.00;;;;;;4942626;28;20093;-72
2022/03/09 05:14:08;;;;;;;10.18;3.47;;;5.60;78.10;;;;;;4936059;29;20023;-72
2022/03/09 05:16:33;;;;;;;7.32;4.22;;;5.60;78.20;;;;;;4949909;28;20471;-72
2022/03/09 05:19:00;;;;;;;6.50;3.72;;;5.50;78.20;;;;;;4936996;28;20395;-72
2022/03/09 05:21:26;;;;;;;6.32;3.75;;;5.50;78.40;;;;;;4948875;28;20043;-72
2022/03/09 05:23:51;;;;;;;8.10;3.92;;;5.50;78.70;;;;;;4955548;28;20077;-72
2022/03/09 05:26:17;;;;;;;6.18;3.55;;;5.50;79.00;;;;;;4949624;29;20047;-72
2022/03/09 05:28:42;;;;;;;6.68;3.38;;;5.40;79.00;;;;;;4976018;28;20040;-72
2022/03/09 05:31:09;;;;;;;7.28;3.95;;;5.40;79.20;;;;;;4952778;28;20035;-72
2022/03/09 05:33:35;;;;;;;7.90;4.07;;;5.40;79.40;;;;;;4952338;28;20065;-72
2022/03/09 05:36:00;;;;;;;7.28;4.03;;;5.40;79.60;;;;;;4962764;28;20054;-72
2022/03/09 05:38:26;;;;;;;6.22;3.60;;;5.40;79.80;;;;;;4963229;28;20058;-72
2022/03/09 05:40:53;;;;;;;6.93;3.33;;;5.40;79.70;;;;;;4977010;28;20041;-72
2022/03/09 05:43:18;;;;;;;7.53;4.00;;;5.40;79.80;;;;;;4955102;28;20413;-72
2022/03/09 05:45:44;;;;;;;13.80;4.65;;;5.40;79.60;;;;;;4981572;28;20056;-72
2022/03/09 05:48:09;;;;;;;8.05;4.32;;;5.40;79.40;;;;;;4973141;28;20035;-72
2022/03/09 05:50:36;;;;;;;7.15;3.92;;;5.40;79.50;;;;;;4971840;28;20538;-72
2022/03/09 05:53:01;;;;;;;7.47;3.58;;;5.30;79.80;;;;;;4979916;28;20103;-72
2022/03/09 05:55:27;;;;;;;7.95;4.32;;;5.30;80.10;;;;;;4980273;28;20130;-72
2022/03/09 05:57:53;;;;;;;6.75;3.92;;;5.30;80.30;;;;;;4962716;28;20118;-72
2022/03/09 06:00:18;;;;;;;6.10;3.80;;;5.30;80.60;;;;;;4962128;28;20050;-73
2022/03/09 06:02:44;;;;;;;9.57;4.28;;;5.30;80.50;;;;;;4939611;28;20027;-73
2022/03/09 06:05:13;;;;;;;7.03;3.83;;;5.30;80.70;;;;;;4941369;28;20052;-74
2022/03/09 06:07:39;;;;;;;6.43;3.28;;;5.30;80.70;;;;;;4950356;29;20489;-72
2022/03/09 06:10:05;;;;;;;14.48;3.75;;;5.30;80.80;;;;;;4961573;28;20089;-72
2022/03/09 06:12:31;;;;;;;5.32;3.25;;;5.30;80.80;;;;;;4950414;28;20046;-72
2022/03/09 06:14:56;;;;;;;11.13;3.92;;;5.30;81.20;;;;;;4948389;28;20399;-72
2022/03/09 06:17:22;;;;;;;7.00;3.90;;;5.30;82.00;;;;;;4946349;28;20035;-77
2022/03/09 06:19:48;;;;;;;6.85;4.13;;;5.20;81.40;;;;;;4952241;28;20028;-72
2022/03/09 06:22:14;;;;;;;8.05;3.75;;;5.30;81.60;;;;;;4978362;28;20052;-71
2022/03/09 06:24:39;;;;;;;7.20;4.20;;;5.20;81.50;;;;;;4983825;28;20039;-71
2022/03/09 06:27:05;;;;;;;13.52;4.35;;;5.20;81.40;;;;;;4964380;28;20038;-70
2022/03/09 06:29:31;;;;;;;8.10;4.43;;;5.20;81.10;;;;;;4962344;28;20035;-71
2022/03/09 06:31:56;;;;;;;7.78;4.10;;;5.20;81.00;;;;;;4947908;28;20486;-71
2022/03/09 06:34:22;;;;;;;11.13;3.75;;;5.10;81.00;;;;;;4949528;29;20114;-71
2022/03/09 06:36:48;;;;;;;9.13;4.80;;;5.10;81.10;;;;;;4955617;28;20038;-71
2022/03/09 06:39:15;;;;;;;8.40;3.97;;;5.10;81.20;;;;;;4950205;28;20089;-70
2022/03/09 06:41:44;;;;;;;7.90;4.20;;;5.10;81.40;;;;;;4973145;28;20047;-71
2022/03/09 06:44:12;;;;;;;8.65;4.07;;;5.10;81.30;;;;;;4960470;28;20035;-70
2022/03/09 06:46:39;;;;;;;10.70;4.18;;;5.10;81.30;;;;;;4949814;28;20401;-70
2022/03/09 06:49:04;;;;;;;9.38;4.47;;;5.10;81.50;;;;;;4973033;28;20757;-70
2022/03/09 06:51:30;;;;;;;9.23;4.78;;;5.00;81.40;;;;;;4962228;28;20081;-70
2022/03/09 06:53:56;;;;;;;9.75;4.38;;;5.10;81.30;;;;;;4959330;28;20051;-71
2022/03/09 06:56:22;;;;;;;7.35;4.20;;;5.00;81.00;;;;;;4961804;28;20082;-76
2022/03/09 06:58:48;;;;;;;6.47;3.58;;;5.00;81.20;;;;;;4973507;28;20067;-71
2022/03/09 07:01:13;;;;;;;6.78;3.70;;;5.00;81.30;;;;;;4972381;28;20038;-75
2022/03/09 07:03:39;;;;;;;11.00;4.25;;;5.00;81.20;;;;;;4951307;28;20062;-71
2022/03/09 07:06:05;;;;;;;10.10;5.07;;;5.00;81.20;;;;;;4950591;28;20502;-70
2022/03/09 07:08:31;;;;;;;8.98;3.03;;;5.10;81.00;;;;;;4963787;28;20066;-70
2022/03/09 07:10:58;;;;;;;7.57;3.47;;;5.10;81.30;;;;;;4961947;28;20051;-70
2022/03/09 07:13:24;;;;;;;7.47;3.30;;;5.10;81.70;;;;;;4950039;28;20134;-70
2022/03/09 07:15:50;;;;;;;8.52;4.03;;;5.10;82.00;;;;;;4951820;28;20119;-74
2022/03/09 07:18:15;;;;;;;8.85;3.10;;;5.10;82.00;;;;;;4951169;28;20444;-69
2022/03/09 07:20:41;;;;;;;8.68;4.28;;;5.10;82.30;;;;;;4950812;28;20039;-70
2022/03/09 07:23:07;;;;;;;7.85;4.40;;;5.10;82.80;;;;;;4982585;28;20028;-70
2022/03/09 07:25:34;;;;;;;9.68;4.22;;;5.20;83.20;;;;;;4942357;28;20047;-70
2022/03/09 07:28:00;;;;;;;9.20;4.13;;;5.20;83.10;;;;;;4944114;28;20038;-70
2022/03/09 07:30:26;;;;;;;8.90;4.57;;;5.20;83.10;;;;;;4951280;29;20035;-69
2022/03/09 07:32:52;;;;;;;7.05;2.58;;;5.30;83.10;;;;;;4951132;28;20116;-71
2022/03/09 07:35:17;;;;;;;13.05;4.95;;;5.30;83.30;;;;;;4950721;28;20031;-69
2022/03/09 07:37:44;;;;;;;10.65;4.50;;;5.30;82.90;;;;;;4950983;29;20035;-70
2022/03/09 07:40:10;;;;;;;9.88;5.25;;;5.30;83.10;;;;;;4951104;28;20058;-73
2022/03/09 07:42:36;;;;;;;9.13;5.03;;;5.30;82.00;;;;;;4957913;28;20033;-69
2022/03/09 07:45:05;;;;;;;8.20;4.40;;;5.30;81.70;;;;;;4950803;28;20042;-70
2022/03/09 07:47:32;;;;;;;8.48;4.50;;;5.30;81.30;;;;;;4972457;28;20036;-70
2022/03/09 07:49:58;;;;;;;9.52;4.75;;;5.30;81.20;;;;;;4949070;28;20042;-73
2022/03/09 07:52:23;;;;;;;11.45;4.78;;;5.40;81.40;;;;;;4946232;28;20028;-74
2022/03/09 07:54:49;;;;;;;19.52;5.20;;;5.30;81.20;;;;;;4955531;28;20472;-73
2022/03/09 07:57:14;;;;;;;13.85;5.30;;;5.40;81.10;;;;;;4949325;28;20050;-72
2022/03/09 07:59:40;;;;;;;16.50;5.35;;;5.40;81.10;;;;;;4938814;28;20035;-73
2022/03/09 08:02:07;;;;;;;21.15;5.60;;;5.40;81.00;;;;;;4950803;28;20165;-73
2022/03/09 08:04:33;;;;;;;11.30;5.65;;;5.50;81.00;;;;;;4949939;28;20059;-73
2022/03/09 08:06:59;;;;;;;9.98;4.95;;;5.50;80.80;;;;;;4950989;28;20463;-73
2022/03/09 08:09:24;;;;;;;8.07;4.70;;;5.50;80.80;;;;;;4949720;28;20474;-73
2022/03/09 08:11:50;;;;;;;7.40;3.90;;;5.50;81.10;;;;;;4950603;28;20031;-73
2022/03/09 08:14:17;;;;;;;9.70;4.60;;;5.50;80.90;;;;;;4937935;28;20438;-73
2022/03/09 08:16:43;;;;;;;26.38;5.78;;;5.60;80.80;;;;;;4950155;28;20093;-73
2022/03/09 08:19:08;;;;;;;6.47;4.13;;;5.60;80.60;;;;;;4939216;28;20027;-73
2022/03/09 08:21:34;;;;;;;7.40;4.20;;;5.60;80.50;;;;;;4950920;28;20058;-72
2022/03/09 08:24:00;;;;;;;14.85;6.22;;;5.70;80.90;;;;;;4957522;28;20458;-71
2022/03/09 08:26:25;;;;;;;9.23;5.00;;;5.70;80.80;;;;;;4960557;28;20035;-72
2022/03/09 08:28:52;;;;;;;9.88;5.03;;;5.70;80.80;;;;;;4962886;28;20031;-72
2022/03/09 08:31:18;;;;;;;9.18;5.07;;;5.80;81.00;;;;;;4949214;28;20387;-72
2022/03/09 08:33:44;;;;;;;11.45;5.75;;;5.80;80.80;;;;;;4952695;28;20076;-72
2022/03/09 08:36:12;;;;;;;14.50;5.38;;;5.90;80.60;;;;;;4979808;28;20031;-72
2022/03/09 08:38:39;;;;;;;8.07;4.05;;;6.00;80.50;;;;;;4960124;28;20110;-72
2022/03/09 08:41:05;;;;;;;5.43;3.20;;;6.00;80.60;;;;;;4949909;28;20600;-72
2022/03/09 08:43:31;;;;;;;14.48;5.00;;;6.00;81.00;;;;;;4945078;28;20027;-72
2022/03/09 08:45:57;;;;;;;12.73;4.65;;;6.10;81.20;;;;;;4942480;29;20429;-73
2022/03/09 08:48:26;;;;;;;17.90;6.00;;;6.10;81.10;;;;;;4948782;28;20129;-67
2022/03/09 08:50:53;;;;;;;13.93;5.43;;;6.20;81.10;;;;;;4950116;28;20093;-71
2022/03/09 08:53:19;;;;;;;10.88;5.20;;;6.30;80.90;;;;;;4931228;29;20028;-70
2022/03/09 08:55:45;;;;;;;8.88;4.25;;;6.40;80.80;;;;;;4950777;28;20051;-70
2022/03/09 08:58:10;;;;;;;11.52;5.03;;;6.40;80.70;;;;;;4950168;29;20383;-70
2022/03/09 09:00:36;;;;;;;11.45;5.20;;;6.40;80.60;;;;;;4949614;28;20470;-71
2022/03/09 09:03:02;;;;;;;9.07;4.97;;;6.50;80.70;;;;;;4945017;28;20031;-71
2022/03/09 09:05:28;;;;;;;9.98;4.45;;;6.50;80.40;;;;;;4934511;28;20044;-72
2022/03/09 09:07:53;;;;;;;12.25;4.82;;;6.60;80.90;;;;;;4952861;28;20084;-72
2022/03/09 09:10:19;;;;;;;19.27;4.80;;;6.70;80.80;;;;;;4952906;28;20074;-72
2022/03/09 09:12:46;;;;;;;7.50;3.83;;;6.70;80.60;;;;;;4934333;29;20067;-72
2022/03/09 09:15:12;;;;;;;12.02;5.25;;;6.80;81.10;;;;;;4936322;29;20043;-72
2022/03/09 09:17:37;;;;;;;6.72;3.75;;;6.80;81.40;;;;;;4953681;28;20039;-72
2022/03/09 09:20:07;;;;;;;10.50;4.93;;;6.90;80.90;;;;;;4937981;28;20074;-72
2022/03/09 09:22:32;;;;;;;13.63;4.35;;;6.90;79.70;;;;;;4981908;28;20033;-72
2022/03/09 09:25:01;;;;;;;6.10;2.63;;;7.00;79.70;;;;;;4960100;28;20164;-72
2022/03/09 09:27:27;;;;;;;11.85;5.05;;;7.00;80.60;;;;;;4959796;28;20043;-72
2022/03/09 09:29:52;;;;;;;20.27;4.80;;;7.00;80.20;;;;;;4968425;28;20049;-72
2022/03/09 09:32:18;;;;;;;9.15;5.13;;;7.00;79.30;;;;;;4943158;28;20509;-72
2022/03/09 09:34:44;;;;;;;11.13;5.10;;;7.10;78.90;;;;;;4945911;28;20038;-72
2022/03/09 09:37:09;;;;;;;7.70;3.35;;;7.10;78.30;;;;;;4935317;28;20024;-72
2022/03/09 09:39:35;;;;;;;8.60;4.95;;;7.20;78.70;;;;;;4935953;29;20545;-72
2022/03/09 09:42:01;;;;;;;2.97;1.77;;;7.20;78.70;;;;;;4952231;28;20035;-72
2022/03/09 09:44:26;;;;;;;8.90;4.93;;;7.20;78.90;;;;;;4948634;28;20035;-72
2022/03/09 09:46:53;;;;;;;13.52;5.90;;;7.30;78.50;;;;;;4944993;29;20066;-70
2022/03/09 09:49:25;;;;;;;12.27;5.18;;;7.30;78.50;;;;;;4947643;28;20097;-70
2022/03/09 09:51:53;;;;;;;9.38;4.13;;;7.40;78.50;;;;;;4946080;28;20085;-70
2022/03/09 09:54:19;;;;;;;7.97;3.97;;;7.40;78.00;;;;;;4952034;28;20046;-70
2022/03/09 09:56:44;;;;;;;13.40;5.20;;;7.50;78.40;;;;;;5010682;28;20742;-70
2022/03/09 09:59:11;;;;;;;6.25;3.90;;;7.50;78.00;;;;;;4951391;28;20085;-68
2022/03/09 10:01:38;;;;;;;5.13;2.78;;;7.50;78.70;;;;;;4951626;28;20498;-69
2022/03/09 10:04:05;;;;;;;9.32;4.10;;;7.60;79.20;;;;;;4948454;29;20062;-69
2022/03/09 10:06:31;;;;;;;10.07;4.30;;;7.60;78.20;;;;;;4933014;29;20044;-67
2022/03/09 10:09:14;;;;;;;11.70;5.47;;;7.70;80.00;;;;;;4947086;28;20495;-68
2022/03/09 10:11:52;;;;;;;11.70;4.72;;;7.80;80.10;;;;;;4951543;28;20047;-68
2022/03/09 10:14:40;;;;;;;7.95;3.60;;;7.80;79.60;;;;;;4951141;28;20031;-67
2022/03/09 10:17:08;;;;;;;5.88;2.78;;;7.90;79.40;;;;;;4938700;28;20051;-68
2022/03/09 10:19:36;;;;;;;10.60;3.35;;;8.00;79.40;;;;;;4951547;28;20047;-67
2022/03/09 10:22:24;;;;;;;8.05;5.20;;;8.10;80.90;;;;;;4969132;28;20518;-69
2022/03/09 10:24:50;;;;;;;10.88;4.15;;;8.10;81.20;;;;;;4976690;28;20122;-70
2022/03/09 10:27:48;;;;;;;9.00;4.45;;;8.20;79.50;;;;;;4951275;28;20034;-71
2022/03/09 10:30:16;;;;;;;10.90;5.75;;;8.20;79.70;;;;;;4938795;28;20063;-71
2022/03/09 10:32:42;;;;;;;9.30;5.25;;;8.30;78.20;;;;;;4950867;29;20532;-71
2022/03/09 10:35:08;;;;;;;11.40;5.68;;;8.40;77.60;;;;;;4932717;28;20111;-68
2022/03/09 10:37:41;;;;;;;10.50;5.72;;;8.40;76.80;;;;;;4944465;29;20097;-67
2022/03/09 10:40:19;;;;;;;10.55;5.45;;;8.40;75.90;;;;;;4951171;28;20080;-68
2022/03/09 10:42:51;;;;;;;8.80;4.95;;;8.50;75.70;;;;;;4947174;28;20518;-67
2022/03/09 10:45:18;;;;;;;9.95;4.40;;;8.50;76.90;;;;;;4942433;29;20046;-68
2022/03/09 10:47:49;;;;;;;12.60;4.43;;;8.60;77.60;;;;;;4950784;28;20035;-68
2022/03/09 10:50:25;;;;;;;8.65;4.13;;;8.60;77.10;;;;;;4938579;29;20458;-67
2022/03/09 10:52:54;;;;;;;11.70;4.72;;;8.70;78.80;;;;;;4939081;28;20386;-67
2022/03/09 10:55:32;;;;;;;9.75;5.22;;;8.80;76.70;;;;;;4989543;28;20029;-66
2022/03/09 10:58:12;;;;;;;10.18;5.22;;;8.80;75.70;;;;;;4925430;28;1054840;-67
2022/03/09 11:00:43;;;;;;;14.35;6.13;;;8.90;76.30;;;;;;4950407;28;20570;-70
2022/03/09 11:03:24;;;;;;;4.47;2.33;;;8.90;75.90;;;;;;4940391;29;20124;-70
2022/03/09 11:06:01;;;;;;;15.52;6.25;;;9.00;76.40;;;;;;4961514;28;20045;-69
2022/03/09 11:08:28;;;;;;;13.02;5.22;;;9.10;75.20;;;;;;4962135;28;20077;-70
2022/03/09 11:10:55;;;;;;;9.98;5.40;;;9.10;76.30;;;;;;4961965;28;20070;-69
2022/03/09 11:13:22;;;;;;;13.35;6.47;;;9.10;75.40;;;;;;4950404;28;20024;-70
2022/03/09 11:15:48;;;;;;;6.70;3.33;;;9.20;74.20;;;;;;4959535;28;20523;-70
2022/03/09 11:18:18;;;;;;;13.80;4.22;;;9.30;75.70;;;;;;4974383;28;20035;-70
2022/03/09 11:20:45;;;;;;;14.60;5.85;;;9.30;75.00;;;;;;4961262;28;20039;-67
2022/03/09 11:23:13;;;;;;;8.00;4.18;;;9.30;73.50;;;;;;4972348;28;20032;-68
2022/03/09 11:25:58;;;;;;;11.27;4.05;;;9.30;73.80;;;;;;4950222;28;20039;-69
2022/03/09 11:28:25;;;;;;;6.40;3.13;;;9.40;74.70;;;;;;4997860;28;20033;-68
2022/03/09 11:30:57;;;;;;;8.23;4.82;;;9.50;75.40;;;;;;4948631;28;20038;-69
2022/03/09 11:33:45;;;;;;;13.75;5.47;;;9.50;74.50;;;;;;4950587;28;20039;-69
2022/03/09 11:36:29;;;;;;;13.25;6.15;;;9.60;74.30;;;;;;4950926;29;20050;-70
2022/03/09 11:39:03;;;;;;;8.10;4.15;;;9.60;72.90;;;;;;4940836;29;20040;-69
2022/03/09 11:41:36;;;;;;;10.63;4.07;;;9.60;73.10;;;;;;4949289;28;20127;-68
2022/03/09 11:44:19;;;;;;;11.73;6.15;;;9.70;75.00;;;;;;4950381;29;20054;-68
2022/03/09 11:47:00;;;;;;;12.55;5.63;;;9.80;74.00;;;;;;4941371;28;20057;-67
2022/03/09 11:49:53;;;;;;;10.00;6.03;;;9.80;72.70;;;;;;4945601;28;20038;-68
2022/03/09 11:52:25;;;;;;;11.57;6.35;;;9.90;72.50;;;;;;4942395;28;20134;-68
2022/03/09 11:54:56;;;;;;;7.22;4.30;;;9.90;73.30;;;;;;4960387;28;20044;-67
2022/03/09 11:57:23;;;;;;;9.45;4.70;;;9.90;73.30;;;;;;4985884;28;20384;-67
2022/03/09 11:59:58;;;;;;;14.27;5.68;;;10.00;73.60;;;;;;4950705;28;20146;-68
2022/03/09 12:02:36;;;;;;;7.88;4.68;;;10.00;72.90;;;;;;4949423;29;20403;-67
2022/03/09 12:05:03;;;;;;;15.10;5.50;;;10.10;73.00;;;;;;4950408;28;20042;-67
2022/03/09 12:07:29;;;;;;;11.18;5.63;;;10.10;73.60;;;;;;4950366;28;20047;-67
2022/03/09 12:09:59;;;;;;;35.42;6.15;;;10.10;71.60;;;;;;4950449;28;20430;-67
2022/03/09 12:12:27;;;;;;;12.52;5.53;;;10.20;71.60;;;;;;4949343;28;20630;-68
2022/03/09 12:15:03;;;;;;;18.80;5.75;;;10.20;71.40;;;;;;4950975;28;20121;-68
2022/03/09 12:17:37;;;;;;;10.52;4.95;;;10.30;71.10;;;;;;4945362;28;20031;-69
2022/03/09 12:20:24;;;;;;;11.70;5.72;;;10.40;71.20;;;;;;4972696;28;20429;-69
2022/03/09 12:22:56;;;;;;;9.90;5.78;;;10.40;71.50;;;;;;4962168;28;20041;-69
2022/03/09 12:25:34;;;;;;;17.55;5.90;;;10.50;70.70;;;;;;4960802;28;20044;-69
2022/03/09 12:28:26;;;;;;;15.73;6.03;;;10.50;70.80;;;;;;4981032;28;20060;-68
2022/03/09 12:31:02;;;;;;;4.53;2.58;;;10.60;70.50;;;;;;4931497;29;20036;-68
2022/03/09 12:33:38;;;;;;;14.55;5.88;;;10.60;72.30;;;;;;4947586;29;20038;-68
2022/03/09 12:36:09;;;;;;;18.50;5.97;;;10.70;72.70;;;;;;4950539;28;20078;-68
2022/03/09 12:38:36;;;;;;;8.52;4.07;;;10.70;72.00;;;;;;4936818;28;20478;-68
2022/03/09 12:41:02;;;;;;;14.00;5.22;;;10.80;73.20;;;;;;4960576;28;20032;-68
2022/03/09 12:43:48;;;;;;;8.25;4.07;;;10.80;73.60;;;;;;4949504;28;20114;-68
2022/03/09 12:46:14;;;;;;;9.20;5.00;;;10.90;73.30;;;;;;4971631;28;20086;-69
2022/03/09 12:48:40;;;;;;;12.10;5.00;;;10.90;73.60;;;;;;4947081;29;20059;-72
2022/03/09 12:51:06;;;;;;;15.95;5.10;;;11.00;72.30;;;;;;4947651;28;20398;-69
2022/03/09 12:53:32;;;;;;;11.02;4.22;;;11.00;71.70;;;;;;4970489;28;20031;-69
2022/03/09 12:56:11;;;;;;;7.03;4.07;;;11.10;71.90;;;;;;4950990;28;20392;-69
2022/03/09 12:58:37;;;;;;;12.27;5.28;;;11.10;71.00;;;;;;4951323;28;20554;-69